Climatologie pour Saint-Brevin les Pins
Jour • Résumé pour mai 8, 2017 Système :  Métrique    Anglais   Mixte
« - 1 jour
+ 1 jour »
Jour Semaine Mois Année Personnalisé
  Maximum : Minimum : Moyenne :
Température sous abri : -17.8 °C -14.3 °C -10.4 °C
Point de rosée : -17.8 °C -14.7 °C -12.6 °C
Humidité : Humidity % 59 % 79 %
Vitesse du vent : 0 km/h 0 km/h 8.5 km/h
Rafale : 0 km/h - -
Direction :- - ENE
Pression : 0 hPa 34591.4 hPa -
Précipitations : 0 mm    
Historical Graphs
 
 
Tableau de données pour mai 8, 2017
Heure Tempé Pt rosée Pression Vent Vitesse Rafale Humidité Taux pluie (/hr) Soleil
-17.8 °C -17.8 °C 0 hPa Calm     Humidity % 0 mm SolarRadiationWatts/m^2 W/m2 Conditions
00:00 -11.6 °C -11.9 °C 34645.6 hPa NNE 5.1 km/h 12.9 km/h 96 % 0 mm 0 W/m2
00:05 -11.6 °C -11.8 °C 34645.6 hPa NE 2.6 km/h 12.9 km/h 97 % 0 mm 0 W/m2
00:15 -11.6 °C -11.9 °C 34645.6 hPa Calm   18.2 km/h 96 % 0 mm 0 W/m2
00:20 -11.7 °C -12 °C 34645.6 hPa NE 7.7 km/h 23.3 km/h 96 % 0 mm 0 W/m2
00:25 -11.8 °C -12.1 °C 34645.6 hPa North 7.7 km/h 23.3 km/h 96 % 0 mm 0 W/m2
00:30 -11.8 °C -12.2 °C 34645.6 hPa Calm   20.8 km/h 95 % 0 mm 0 W/m2
00:35 -11.8 °C -12.3 °C 34645.6 hPa NE 7.7 km/h 20.8 km/h 95 % 0 mm 0 W/m2
00:40 -11.9 °C -12.4 °C 34645.6 hPa NNE 7.7 km/h 20.8 km/h 94 % 0 mm 0 W/m2
00:45 -12 °C -12.5 °C 34645.6 hPa NE 10.3 km/h 18.2 km/h 94 % 0 mm 0 W/m2
00:50 -12.1 °C -12.6 °C 34645.6 hPa Calm   18.2 km/h 94 % 0 mm 0 W/m2
00:55 -12.1 °C -12.7 °C 34645.6 hPa ENE 5.1 km/h 15.6 km/h 93 % 0 mm 0 W/m2
01:00 -12.1 °C -12.7 °C 34645.6 hPa ENE 2.6 km/h 15.6 km/h 94 % 0 mm 0 W/m2
01:10 -12.3 °C -12.9 °C 34645.6 hPa NE 2.6 km/h 12.9 km/h 93 % 0 mm 0 W/m2
01:15 -12.4 °C -12.9 °C 34645.6 hPa NE 10.3 km/h 12.9 km/h 94 % 0 mm 0 W/m2
01:20 -12.4 °C -13.1 °C 34645.6 hPa NE 5.1 km/h 12.9 km/h 93 % 0 mm 0 W/m2
01:25 -12.5 °C -13 °C 34645.6 hPa NNE 5.1 km/h 10.3 km/h 94 % 0 mm 0 W/m2
01:30 -12.6 °C -13.1 °C 34645.6 hPa North 5.1 km/h 10.3 km/h 93 % 0 mm 0 W/m2
01:35 -12.6 °C -13.1 °C 34659.1 hPa NNE 2.6 km/h 10.3 km/h 94 % 0 mm 0 W/m2
01:40 -12.7 °C -13.2 °C 34659.1 hPa Calm   10.3 km/h 94 % 0 mm 0 W/m2
01:45 -12.7 °C -13.2 °C 34659.1 hPa North 5.1 km/h 10.3 km/h 94 % 0 mm 0 W/m2
01:50 -12.8 °C -13.3 °C 34659.1 hPa Calm   7.7 km/h 94 % 0 mm 0 W/m2
01:55 -12.9 °C -13.4 °C 34659.1 hPa North 2.6 km/h 10.3 km/h 94 % 0 mm 0 W/m2
02:00 -12.9 °C -13.4 °C 34659.1 hPa Calm   10.3 km/h 94 % 0 mm 0 W/m2
02:05 -13 °C -13.4 °C 34659.1 hPa North 2.6 km/h 10.3 km/h 95 % 0 mm 0 W/m2
02:10 -13.1 °C -13.5 °C 34659.1 hPa Calm   7.7 km/h 95 % 0 mm 0 W/m2
02:15 -13.1 °C -13.5 °C 34659.1 hPa Calm   7.7 km/h 95 % 0 mm 0 W/m2
02:20 -13.1 °C -13.5 °C 34659.1 hPa NE 12.9 km/h 15.6 km/h 95 % 0 mm 0 W/m2
02:25 -13 °C -13.3 °C 34659.1 hPa North 2.6 km/h 15.6 km/h 96 % 0 mm 0 W/m2
02:30 -12.9 °C -13.4 °C 34659.1 hPa NNE 5.1 km/h 12.9 km/h 95 % 0 mm 0 W/m2
02:35 -13 °C -13.4 °C 34659.1 hPa Calm   12.9 km/h 95 % 0 mm 0 W/m2
02:40 -13 °C -13.4 °C 34659.1 hPa NNE 5.1 km/h 12.9 km/h 95 % 0 mm 0 W/m2
02:45 -13.1 °C -13.5 °C 34659.1 hPa Calm   12.9 km/h 95 % 0 mm 0 W/m2
02:50 -13.1 °C -13.6 °C 34659.1 hPa NNE 2.6 km/h 12.9 km/h 95 % 0 mm 0 W/m2
02:55 -13.2 °C -13.6 °C 34659.1 hPa Calm   12.9 km/h 95 % 0 mm 0 W/m2
03:00 -13.2 °C -13.6 °C 34659.1 hPa NNE 5.1 km/h 15.6 km/h 95 % 0 mm 0 W/m2
03:05 -13.2 °C -13.6 °C 34659.1 hPa Calm   20.8 km/h 95 % 0 mm 0 W/m2
03:15 -13.2 °C -13.6 °C 34659.1 hPa NNE 7.7 km/h 18.2 km/h 95 % 0 mm 0 W/m2
03:20 -13.3 °C -13.7 °C 34659.1 hPa NNE 2.6 km/h 12.9 km/h 95 % 0 mm 0 W/m2
03:25 -13.3 °C -13.8 °C 34659.1 hPa NNE 5.1 km/h 15.6 km/h 95 % 0 mm 0 W/m2
03:30 -13.3 °C -13.7 °C 34659.1 hPa NE 5.1 km/h 15.6 km/h 95 % 0 mm 0 W/m2
03:35 -13.3 °C -13.7 °C 34659.1 hPa NE 7.7 km/h 15.6 km/h 95 % 0 mm 0 W/m2
03:40 -13.3 °C -13.7 °C 34659.1 hPa Calm   15.6 km/h 95 % 0 mm 0 W/m2
03:45 -13.2 °C -13.7 °C 34659.1 hPa NE 5.1 km/h 15.6 km/h 95 % 0 mm 0 W/m2
03:50 -13.2 °C -13.7 °C 34659.1 hPa NNE 2.6 km/h 15.6 km/h 95 % 0 mm 0 W/m2
03:55 -13.3 °C -13.8 °C 34645.6 hPa East 2.6 km/h 12.9 km/h 95 % 0 mm 0 W/m2
04:00 -13.3 °C -13.8 °C 34645.6 hPa NE 10.3 km/h 12.9 km/h 94 % 0 mm 0 W/m2
04:05 -13.3 °C -13.8 °C 34659.1 hPa ENE 2.6 km/h 12.9 km/h 94 % 0 mm 0 W/m2
04:10 -13.4 °C -13.8 °C 34645.6 hPa Calm   18.2 km/h 95 % 0 mm 0 W/m2
04:15 -13.4 °C -13.8 °C 34645.6 hPa NNE 2.6 km/h 18.2 km/h 95 % 0 mm 0 W/m2
04:20 -13.4 °C -13.8 °C 34645.6 hPa NNE 10.3 km/h 18.2 km/h 95 % 0 mm 0 W/m2
04:25 -13.4 °C -13.9 °C 34645.6 hPa NE 10.3 km/h 20.8 km/h 94 % 0 mm 0 W/m2
04:30 -13.3 °C -13.8 °C 34645.6 hPa NNW 7.7 km/h 20.8 km/h 94 % 0 mm 0 W/m2
04:35 -13.3 °C -13.8 °C 34645.6 hPa NNE 15.6 km/h 23.3 km/h 94 % 0 mm 0 W/m2
04:40 -13.3 °C -13.8 °C 34645.6 hPa NNE 5.1 km/h 23.3 km/h 94 % 0 mm 0 W/m2
04:45 -13.3 °C -13.8 °C 34645.6 hPa NNE 12.9 km/h 20.8 km/h 94 % 0 mm 0 W/m2
04:50 -13.3 °C -13.8 °C 34645.6 hPa NE 2.6 km/h 20.8 km/h 94 % 0 mm 0 W/m2
04:55 -13.3 °C -13.8 °C 34645.6 hPa Calm   20.8 km/h 94 % 0 mm 0 W/m2
05:00 -13.3 °C -13.8 °C 34645.6 hPa NE 7.7 km/h 25.9 km/h 94 % 0 mm 0 W/m2
05:10 -13.4 °C -13.9 °C 34645.6 hPa Calm   18.2 km/h 94 % 0 mm 0 W/m2
05:20 -13.4 °C -13.9 °C 34645.6 hPa NE 7.7 km/h 15.6 km/h 94 % 0 mm 0 W/m2
05:25 -13.6 °C -14.1 °C 34645.6 hPa NNE 5.1 km/h 18.2 km/h 94 % 0 mm 0 W/m2
05:30 -13.6 °C -14.1 °C 34645.6 hPa Calm   18.2 km/h 94 % 0 mm 0 W/m2
05:35 -13.5 °C -14 °C 34645.6 hPa NE 7.7 km/h 15.6 km/h 94 % 0 mm 0 W/m2
05:40 -13.6 °C -14.1 °C 34645.6 hPa Calm   18.2 km/h 94 % 0 mm 0 W/m2
05:45 -13.6 °C -14 °C 34645.6 hPa Calm   18.2 km/h 95 % 0 mm 0 W/m2
05:50 -13.6 °C -13.9 °C 34645.6 hPa Calm   12.9 km/h 95 % 0 mm 0 W/m2
05:55 -13.6 °C -13.9 °C 34645.6 hPa Calm   7.7 km/h 95 % 0 mm 0 W/m2
06:00 -13.6 °C -14.1 °C 34645.6 hPa NE 5.1 km/h 7.7 km/h 94 % 0 mm 0 W/m2
06:05 -13.7 °C -14.2 °C 34645.6 hPa NE 2.6 km/h 5.1 km/h 94 % 0 mm 0 W/m2
06:10 -13.8 °C -14.2 °C 34645.6 hPa East 2.6 km/h 7.7 km/h 95 % 0 mm 0 W/m2
06:15 -13.8 °C -14.2 °C 34645.6 hPa Calm   12.9 km/h 95 % 0 mm 0 W/m2
06:20 -13.8 °C -14.2 °C 34645.6 hPa East 2.6 km/h 12.9 km/h 95 % 0 mm 0 W/m2
06:25 -13.8 °C -14.2 °C 34645.6 hPa Calm   7.7 km/h 95 % 0 mm 0 W/m2
06:30 -13.9 °C -14.3 °C 34645.6 hPa Calm   5.1 km/h 95 % 0 mm 0 W/m2
06:35 -14 °C -14.4 °C 34659.1 hPa Calm   2.6 km/h 95 % 0 mm 0 W/m2
06:40 -14.1 °C -14.5 °C 34645.6 hPa Calm   2.6 km/h 95 % 0 mm 0 W/m2
06:45 -14.1 °C -14.6 °C 34659.1 hPa Calm   2.6 km/h 95 % 0 mm 5 W/m2
06:50 -14.2 °C -14.5 °C 34659.1 hPa Calm   5.1 km/h 96 % 0 mm 7 W/m2
06:55 -14.3 °C -14.6 °C 34659.1 hPa Calm   5.1 km/h 96 % 0 mm 9 W/m2
07:00 -14.3 °C -14.6 °C 34659.1 hPa Calm   5.1 km/h 96 % 0 mm 12 W/m2
07:05 -14.3 °C -14.7 °C 34669.3 hPa Calm   5.1 km/h 96 % 0 mm 16 W/m2
07:10 -14.3 °C -14.7 °C 34669.3 hPa Calm   2.6 km/h 96 % 0 mm 19 W/m2
07:15 -14.3 °C -14.6 °C 34669.3 hPa Calm   2.6 km/h 96 % 0 mm 23 W/m2
07:20 -14.3 °C -14.6 °C 34669.3 hPa Calm   5.1 km/h 96 % 0 mm 26 W/m2
07:25 -14.2 °C -14.5 °C 34669.3 hPa Calm   5.1 km/h 96 % 0 mm 28 W/m2
07:30 -14.1 °C -14.4 °C 34669.3 hPa Calm   7.7 km/h 96 % 0 mm 32 W/m2
07:35 -13.9 °C -14.2 °C 34669.3 hPa Calm   7.7 km/h 97 % 0 mm 35 W/m2
07:40 -13.8 °C -14.1 °C 34669.3 hPa ENE 5.1 km/h 7.7 km/h 97 % 0 mm 39 W/m2
07:45 -13.8 °C -14.1 °C 34669.3 hPa NNE 5.1 km/h 10.3 km/h 97 % 0 mm 42 W/m2
07:50 -13.7 °C -13.9 °C 34669.3 hPa NNE 2.6 km/h 10.3 km/h 97 % 0 mm 44 W/m2
07:55 -13.6 °C -13.8 °C 34669.3 hPa NE 5.1 km/h 15.6 km/h 97 % 0 mm 47 W/m2
08:00 -13.4 °C -13.7 °C 34669.3 hPa NE 5.1 km/h 18.2 km/h 97 % 0 mm 51 W/m2
08:05 -13.4 °C -13.6 °C 34669.3 hPa NE 5.1 km/h 18.2 km/h 97 % 0 mm 54 W/m2
08:10 -13.3 °C -13.6 °C 34669.3 hPa Calm   12.9 km/h 97 % 0 mm 58 W/m2
08:15 -13.2 °C -13.4 °C 34669.3 hPa North 2.6 km/h 10.3 km/h 97 % 0 mm 60 W/m2
08:20 -13.1 °C -13.3 °C 34669.3 hPa NE 5.1 km/h 12.9 km/h 97 % 0 mm 63 W/m2
08:25 -13 °C -13.3 °C 34669.3 hPa Calm   12.9 km/h 96 % 0 mm 67 W/m2
08:30 -12.9 °C -13.2 °C 34669.3 hPa East 12.9 km/h 25.9 km/h 96 % 0 mm 141 W/m2
08:35 -12.8 °C -13.2 °C 34669.3 hPa NE 10.3 km/h 25.9 km/h 95 % 0 mm 244 W/m2
08:40 -12.6 °C -13.1 °C 34669.3 hPa East 15.6 km/h 25.9 km/h 95 % 0 mm 260 W/m2
08:45 -12.5 °C -13 °C 34669.3 hPa East 2.6 km/h 25.9 km/h 94 % 0 mm 276 W/m2
08:50 -12.4 °C -13 °C 34682.8 hPa SE 15.6 km/h 28.5 km/h 93 % 0 mm 285 W/m2
08:55 -12.3 °C -13.1 °C 34682.8 hPa NE 15.6 km/h 28.5 km/h 91 % 0 mm 306 W/m2
09:00 -12.2 °C -13.1 °C 34682.8 hPa East 25.9 km/h 28.5 km/h 90 % 0 mm 316 W/m2
09:05 -12.1 °C -13 °C 34682.8 hPa East 15.6 km/h 28.5 km/h 89 % 0 mm 336 W/m2
09:10 -11.8 °C -12.9 °C 34682.8 hPa ENE 12.9 km/h 28.5 km/h 88 % 0 mm 350 W/m2
09:15 -11.8 °C -12.9 °C 34682.8 hPa East 15.6 km/h 25.9 km/h 87 % 0 mm 364 W/m2
09:20 -11.6 °C -12.8 °C 34682.8 hPa East 18.2 km/h 28.5 km/h 87 % 0 mm 383 W/m2
09:25 -11.7 °C -13 °C 34682.8 hPa ENE 7.7 km/h 28.5 km/h 85 % 0 mm 396 W/m2
09:30 -11.5 °C -12.7 °C 34682.8 hPa East 5.1 km/h 23.3 km/h 86 % 0 mm 410 W/m2
09:35 -11.3 °C -12.8 °C 34682.8 hPa East 20.8 km/h 23.3 km/h 84 % 0 mm 425 W/m2
09:40 -11.3 °C -12.7 °C 34682.8 hPa East 12.9 km/h 25.9 km/h 84 % 0 mm 434 W/m2
09:45 -11.2 °C -12.9 °C 34682.8 hPa ENE 5.1 km/h 25.9 km/h 82 % 0 mm 450 W/m2
09:50 -11.1 °C -12.6 °C 34682.8 hPa ENE 2.6 km/h 25.9 km/h 83 % 0 mm 466 W/m2
09:55 -11 °C -12.8 °C 34682.8 hPa ESE 12.9 km/h 23.3 km/h 81 % 0 mm 483 W/m2
10:00 -10.9 °C -12.7 °C 34682.8 hPa Calm   23.3 km/h 81 % 0 mm 497 W/m2
10:05 -10.9 °C -12.5 °C 34682.8 hPa East 23.3 km/h 23.3 km/h 82 % 0 mm 503 W/m2
10:10 -10.7 °C -12.6 °C 34682.8 hPa East 5.1 km/h 23.3 km/h 80 % 0 mm 517 W/m2
10:15 -10.6 °C -12.8 °C 34682.8 hPa East 20.8 km/h 23.3 km/h 77 % 0 mm 540 W/m2
10:20 -10.7 °C -13.1 °C 34682.8 hPa ESE 5.1 km/h 23.3 km/h 76 % 0 mm 552 W/m2
10:25 -10.6 °C -12.8 °C 34682.8 hPa ENE 10.3 km/h 23.3 km/h 77 % 0 mm 566 W/m2
10:30 -10.5 °C -12.7 °C 34682.8 hPa NE 10.3 km/h 23.3 km/h 77 % 0 mm 584 W/m2
10:35 -10.4 °C -12.8 °C 34682.8 hPa East 2.6 km/h 20.8 km/h 75 % 0 mm 599 W/m2
10:40 -10.2 °C -12.4 °C 34682.8 hPa ENE 7.7 km/h 25.9 km/h 77 % 0 mm 605 W/m2
10:45 -10.1 °C -12.6 °C 34682.8 hPa NE 7.7 km/h 25.9 km/h 74 % 0 mm 631 W/m2
10:50 -10.1 °C -12.7 °C 34682.8 hPa Calm   18.2 km/h 73 % 0 mm 631 W/m2
10:55 -10 °C -12.7 °C 34693 hPa ESE 2.6 km/h 25.9 km/h 73 % 0 mm 635 W/m2
11:00 -9.9 °C -12.6 °C 34693 hPa ESE 10.3 km/h 25.9 km/h 73 % 0 mm 661 W/m2
11:05 -9.8 °C -12.6 °C 34693 hPa East 12.9 km/h 25.9 km/h 72 % 0 mm 666 W/m2
11:10 -9.7 °C -12.6 °C 34693 hPa East 5.1 km/h 25.9 km/h 71 % 0 mm 675 W/m2
11:15 -9.6 °C -12.4 °C 34693 hPa SE 18.2 km/h 20.8 km/h 71 % 0 mm 687 W/m2
11:20 -9.6 °C -12.3 °C 34682.8 hPa ENE 5.1 km/h 28.5 km/h 72 % 0 mm 701 W/m2
11:25 -9.5 °C -12.4 °C 34682.8 hPa Calm   28.5 km/h 71 % 0 mm 705 W/m2
11:30 -9.2 °C -11.9 °C 34682.8 hPa East 15.6 km/h 20.8 km/h 73 % 0 mm 721 W/m2
11:35 -9.3 °C -12.2 °C 34682.8 hPa ENE 7.7 km/h 23.3 km/h 71 % 0 mm 728 W/m2
11:40 -9.2 °C -11.9 °C 34682.8 hPa NE 15.6 km/h 31.1 km/h 72 % 0 mm 737 W/m2
11:45 -9 °C -11.9 °C 34682.8 hPa Calm   31.1 km/h 71 % 0 mm 742 W/m2
11:50 -8.8 °C -11.8 °C 34682.8 hPa ENE 10.3 km/h 20.8 km/h 71 % 0 mm 756 W/m2
11:55 -9 °C -12 °C 34682.8 hPa SE 10.3 km/h 20.8 km/h 70 % 0 mm 768 W/m2
12:00 -8.9 °C -11.9 °C 34682.8 hPa North 12.9 km/h 20.8 km/h 70 % 0 mm 768 W/m2
12:05 -8.9 °C -12.2 °C 34682.8 hPa East 23.3 km/h 23.3 km/h 68 % 0 mm 784 W/m2
12:10 -8.8 °C -11.8 °C 34682.8 hPa NNW 7.7 km/h 23.3 km/h 71 % 0 mm 789 W/m2
12:15 -8.7 °C -11.9 °C 34682.8 hPa SE 7.7 km/h 28.5 km/h 69 % 0 mm 796 W/m2
12:20 -8.7 °C -11.7 °C 34682.8 hPa ENE 18.2 km/h 28.5 km/h 70 % 0 mm 807 W/m2
12:25 -8.7 °C -12 °C 34682.8 hPa East 12.9 km/h 23.3 km/h 68 % 0 mm 809 W/m2
12:30 -8.5 °C -11.6 °C 34669.3 hPa NNE 5.1 km/h 28.5 km/h 70 % 0 mm 824 W/m2
12:35 -8.4 °C -11.7 °C 34669.3 hPa ENE 5.1 km/h 28.5 km/h 68 % 0 mm 824 W/m2
12:40 -7.9 °C -11.1 °C 34669.3 hPa East 2.6 km/h 28.5 km/h 70 % 0 mm 837 W/m2
12:45 -7.9 °C -11.5 °C 34669.3 hPa NNE 5.1 km/h 28.5 km/h 66 % 0 mm 828 W/m2
12:50 -8.1 °C -11.5 °C 34669.3 hPa Calm   23.3 km/h 67 % 0 mm 830 W/m2
12:55 -8.3 °C -11.2 °C 34669.3 hPa ESE 2.6 km/h 23.3 km/h 71 % 0 mm 826 W/m2
13:00 -8 °C -11.7 °C 34669.3 hPa ENE 12.9 km/h 28.5 km/h 65 % 0 mm 847 W/m2
13:05 -8 °C -11.3 °C 34669.3 hPa North 2.6 km/h 28.5 km/h 68 % 0 mm 838 W/m2
13:10 -8 °C -11.7 °C 34669.3 hPa North 7.7 km/h 25.9 km/h 65 % 0 mm 849 W/m2
13:15 -8.1 °C -11.6 °C 34669.3 hPa North 7.7 km/h 25.9 km/h 67 % 0 mm 865 W/m2
13:20 -7.8 °C -11.2 °C 34659.1 hPa NNE 7.7 km/h 25.9 km/h 68 % 0 mm 874 W/m2
13:25 -7.7 °C -11.2 °C 34659.1 hPa North 5.1 km/h 25.9 km/h 67 % 0 mm 865 W/m2
13:30 -7.6 °C -10.9 °C 34659.1 hPa SSE 5.1 km/h 25.9 km/h 68 % 0 mm 868 W/m2
13:40 -7.8 °C -11.3 °C 34659.1 hPa Calm   28.5 km/h 67 % 0 mm 870 W/m2
13:50 -7.3 °C -10.6 °C 34659.1 hPa ENE 5.1 km/h 33.6 km/h 69 % 0 mm 891 W/m2
13:55 -7.4 °C -11.2 °C 34659.1 hPa NE 7.7 km/h 33.6 km/h 64 % 0 mm 895 W/m2
14:00 -7.3 °C -11.1 °C 34659.1 hPa ENE 7.7 km/h 41.4 km/h 65 % 0 mm 900 W/m2
14:05 -7.3 °C -10.6 °C 34645.6 hPa ENE 7.7 km/h 41.4 km/h 69 % 0 mm 914 W/m2
14:10 -7.2 °C -11.2 °C 34645.6 hPa East 33.6 km/h 33.6 km/h 63 % 0 mm 919 W/m2
14:15 -7.4 °C -10.9 °C 34645.6 hPa NE 10.3 km/h 33.6 km/h 67 % 0 mm 719 W/m2
14:20 -7.4 °C -11.1 °C 34645.6 hPa NE 7.7 km/h 33.6 km/h 65 % 0 mm 884 W/m2
14:25 -7.2 °C -11.1 °C 34645.6 hPa NE 10.3 km/h 31.1 km/h 64 % 0 mm 933 W/m2
14:30 -7 °C -10.7 °C 34645.6 hPa NE 5.1 km/h 31.1 km/h 65 % 0 mm 951 W/m2
14:35 -6.9 °C -11.2 °C 34645.6 hPa NE 12.9 km/h 36.2 km/h 61 % 0 mm 981 W/m2
14:40 -6.7 °C -10.6 °C 34645.6 hPa NE 28.5 km/h 36.2 km/h 64 % 0 mm 1027 W/m2
14:45 -6.9 °C -11.3 °C 34645.6 hPa NNE 28.5 km/h 36.2 km/h 60 % 0 mm 916 W/m2
14:50 -6.9 °C -11.3 °C 34645.6 hPa NE 20.8 km/h 36.2 km/h 60 % 0 mm 893 W/m2
14:55 -6.9 °C -11.1 °C 34635.4 hPa East 12.9 km/h 36.2 km/h 62 % 0 mm 988 W/m2
15:00 -7.1 °C -11.1 °C 34635.4 hPa NE 18.2 km/h 36.2 km/h 63 % 0 mm 420 W/m2
15:05 -7.2 °C -11.1 °C 34635.4 hPa NE 18.2 km/h 28.5 km/h 64 % 0 mm 925 W/m2
15:10 -7 °C -10.8 °C 34635.4 hPa NNE 23.3 km/h 31.1 km/h 64 % 0 mm 1021 W/m2
15:15 -7.2 °C -11.1 °C 34635.4 hPa North 10.3 km/h 31.1 km/h 64 % 0 mm 439 W/m2
15:20 -7.4 °C -11.6 °C 34635.4 hPa ENE 10.3 km/h 28.5 km/h 62 % 0 mm 295 W/m2
15:25 -7.2 °C -10.9 °C 34635.4 hPa East 12.9 km/h 28.5 km/h 65 % 0 mm 947 W/m2
15:30 -7.1 °C -10.9 °C 34625.2 hPa NE 5.1 km/h 28.5 km/h 64 % 0 mm 914 W/m2
15:35 -6.6 °C -10.9 °C 34625.2 hPa East 23.3 km/h 28.5 km/h 61 % 0 mm 933 W/m2
15:40 -6.6 °C -10.4 °C 34625.2 hPa North 18.2 km/h 31.1 km/h 64 % 0 mm 849 W/m2
15:45 -6.6 °C -10.8 °C 34625.2 hPa NE 15.6 km/h 31.1 km/h 62 % 0 mm 828 W/m2
15:50 -6.8 °C -11.4 °C 34625.2 hPa NNE 23.3 km/h 31.1 km/h 59 % 0 mm 823 W/m2
15:55 -7.3 °C -11.6 °C 34625.2 hPa NNE 10.3 km/h 31.1 km/h 61 % 0 mm 315 W/m2
16:00 -7.3 °C -10.8 °C 34625.2 hPa NE 12.9 km/h 28.5 km/h 67 % 0 mm 283 W/m2
16:05 -7.2 °C -11.6 °C 34611.7 hPa NE 20.8 km/h 25.9 km/h 60 % 0 mm 179 W/m2
16:10 -7.5 °C -11.5 °C 34611.7 hPa NNE 7.7 km/h 33.6 km/h 63 % 0 mm 213 W/m2
16:15 -7.6 °C -11.5 °C 34611.7 hPa North 10.3 km/h 33.6 km/h 64 % 0 mm 234 W/m2
16:20 -7.4 °C -11.1 °C 34611.7 hPa East 7.7 km/h 25.9 km/h 66 % 0 mm 798 W/m2
16:25 -6.7 °C -11.3 °C 34611.7 hPa NE 7.7 km/h 31.1 km/h 59 % 0 mm 773 W/m2
16:30 -7.1 °C -11.1 °C 34611.7 hPa NE 15.6 km/h 31.1 km/h 63 % 0 mm 204 W/m2
16:35 -7 °C -10.5 °C 34611.7 hPa NNE 12.9 km/h 31.1 km/h 67 % 0 mm 782 W/m2
16:40 -7.1 °C -11.2 °C 34601.5 hPa North 15.6 km/h 41.4 km/h 62 % 0 mm 171 W/m2
16:45 -7.6 °C -11.3 °C 34601.5 hPa ENE 25.9 km/h 41.4 km/h 65 % 0 mm 745 W/m2
16:50 -7.1 °C -10.6 °C 34601.5 hPa NNE 7.7 km/h 38.8 km/h 67 % 0 mm 700 W/m2
16:55 -6.9 °C -10.9 °C 34601.5 hPa NE 28.5 km/h 38.8 km/h 63 % 0 mm 652 W/m2
17:00 -6.9 °C -10.9 °C 34601.5 hPa East 10.3 km/h 41.4 km/h 63 % 0 mm 671 W/m2
17:05 -6.9 °C -11.1 °C 34601.5 hPa East 25.9 km/h 41.4 km/h 62 % 0 mm 636 W/m2
17:10 -7 °C -11.1 °C 34601.5 hPa ENE 18.2 km/h 41.4 km/h 62 % 0 mm 638 W/m2
17:15 -7.1 °C -11.1 °C 34601.5 hPa North 15.6 km/h 41.4 km/h 63 % 0 mm 591 W/m2
17:20 -7 °C -11.3 °C 34601.5 hPa NW 10.3 km/h 33.6 km/h 61 % 0 mm 591 W/m2
17:25 -7.1 °C -11.4 °C 34601.5 hPa ENE 12.9 km/h 36.2 km/h 61 % 0 mm 541 W/m2
17:30 -7.2 °C -11.7 °C 34601.5 hPa NE 12.9 km/h 36.2 km/h 59 % 0 mm 591 W/m2
17:35 -7.1 °C -11.1 °C 34601.5 hPa NE 5.1 km/h 36.2 km/h 63 % 0 mm 606 W/m2
17:40 -7 °C -11.3 °C 34591.4 hPa ENE 7.7 km/h 38.8 km/h 61 % 0 mm 533 W/m2
17:45 -6.8 °C -11 °C 34591.4 hPa NE 5.1 km/h 38.8 km/h 62 % 0 mm 564 W/m2
17:50 -6.8 °C -11.1 °C 34591.4 hPa North 10.3 km/h 28.5 km/h 61 % 0 mm 538 W/m2
17:55 -7 °C -11.6 °C 34591.4 hPa ENE 18.2 km/h 31.1 km/h 59 % 0 mm 302 W/m2
18:00 -7.1 °C -11.2 °C 34591.4 hPa NE 10.3 km/h 31.1 km/h 62 % 0 mm 621 W/m2
18:05 -6.8 °C -11 °C 34591.4 hPa NE 10.3 km/h 25.9 km/h 62 % 0 mm 642 W/m2
18:10 -6.9 °C -11.2 °C 34591.4 hPa ENE 20.8 km/h 36.2 km/h 61 % 0 mm 283 W/m2
18:15 -6.9 °C -11.2 °C 34591.4 hPa NE 12.9 km/h 36.2 km/h 61 % 0 mm 527 W/m2
18:20 -7.1 °C -11.2 °C 34591.4 hPa NNW 15.6 km/h 33.6 km/h 62 % 0 mm 480 W/m2
18:25 -7.1 °C -11.1 °C 34591.4 hPa NE 10.3 km/h 28.5 km/h 63 % 0 mm 461 W/m2
18:30 -7.1 °C -11.3 °C 34591.4 hPa NNE 28.5 km/h 41.4 km/h 61 % 0 mm 450 W/m2
18:35 -7.2 °C -11.3 °C 34591.4 hPa NNE 10.3 km/h 41.4 km/h 62 % 0 mm 420 W/m2
18:40 -7.2 °C -11.3 °C 34591.4 hPa Calm   33.6 km/h 62 % 0 mm 404 W/m2
18:45 -7.2 °C -11.3 °C 34591.4 hPa NE 7.7 km/h 25.9 km/h 62 % 0 mm 338 W/m2
18:50 -7.3 °C -11.3 °C 34591.4 hPa NNE 10.3 km/h 28.5 km/h 63 % 0 mm 353 W/m2
18:55 -7.4 °C -11.4 °C 34591.4 hPa ENE 10.3 km/h 28.5 km/h 63 % 0 mm 144 W/m2
19:00 -7.7 °C -11.4 °C 34591.4 hPa NNE 10.3 km/h 28.5 km/h 65 % 0 mm 320 W/m2
19:05 -7.7 °C -11.3 °C 34591.4 hPa NNE 10.3 km/h 28.5 km/h 66 % 0 mm 279 W/m2
19:10 -7.6 °C -11.5 °C 34591.4 hPa ENE 12.9 km/h 25.9 km/h 64 % 0 mm 301 W/m2
19:15 -7.6 °C -11.3 °C 34591.4 hPa NNW 5.1 km/h 23.3 km/h 65 % 0 mm 292 W/m2
19:25 -7.7 °C -11.6 °C 34591.4 hPa East 20.8 km/h 31.1 km/h 64 % 0 mm 207 W/m2
19:30 -7.9 °C -11.6 °C 34591.4 hPa Calm   33.6 km/h 65 % 0 mm 53 W/m2
19:35 -8.2 °C -11.5 °C 34591.4 hPa East 18.2 km/h 33.6 km/h 68 % 0 mm 197 W/m2
19:40 -8.2 °C -11.4 °C 34591.4 hPa NE 7.7 km/h 23.3 km/h 68 % 0 mm 193 W/m2
19:45 -8.1 °C -11.7 °C 34591.4 hPa NNE 10.3 km/h 31.1 km/h 66 % 0 mm 185 W/m2
19:50 -8.2 °C -11.8 °C 34591.4 hPa East 12.9 km/h 31.1 km/h 65 % 0 mm 163 W/m2
19:55 -8.2 °C -12.1 °C 34591.4 hPa NE 12.9 km/h 31.1 km/h 64 % 0 mm 162 W/m2
20:00 -8.4 °C -12.3 °C 34591.4 hPa NE 5.1 km/h 31.1 km/h 63 % 0 mm 144 W/m2
20:05 -8.4 °C -12.4 °C 34591.4 hPa North 7.7 km/h 25.9 km/h 63 % 0 mm 100 W/m2
20:10 -8.5 °C -12.6 °C 34591.4 hPa ENE 7.7 km/h 25.9 km/h 62 % 0 mm 111 W/m2
20:15 -8.6 °C -12.4 °C 34591.4 hPa NE 5.1 km/h 25.9 km/h 64 % 0 mm 95 W/m2
20:20 -8.7 °C -12.4 °C 34591.4 hPa NNE 7.7 km/h 20.8 km/h 65 % 0 mm 63 W/m2
20:25 -8.8 °C -12.4 °C 34591.4 hPa Calm   28.5 km/h 65 % 0 mm 42 W/m2
20:30 -8.9 °C -12.6 °C 34591.4 hPa East 15.6 km/h 28.5 km/h 65 % 0 mm 37 W/m2
20:35 -9.1 °C -12.3 °C 34591.4 hPa ENE 2.6 km/h 23.3 km/h 68 % 0 mm 37 W/m2
20:40 -9.2 °C -12.4 °C 34591.4 hPa ENE 5.1 km/h 23.3 km/h 68 % 0 mm 35 W/m2
20:45 -9.3 °C -12.4 °C 34591.4 hPa ENE 2.6 km/h 23.3 km/h 69 % 0 mm 30 W/m2
20:50 -9.3 °C -12.5 °C 34591.4 hPa East 2.6 km/h 20.8 km/h 69 % 0 mm 28 W/m2
20:55 -9.4 °C -12.4 °C 34591.4 hPa Calm   15.6 km/h 70 % 0 mm 28 W/m2
21:00 -9.5 °C -12.4 °C 34591.4 hPa NNE 5.1 km/h 15.6 km/h 71 % 0 mm 21 W/m2
21:05 -9.6 °C -12.3 °C 34591.4 hPa ENE 5.1 km/h 15.6 km/h 72 % 0 mm 21 W/m2
21:10 -9.7 °C -12.3 °C 34601.5 hPa Calm   10.3 km/h 73 % 0 mm 19 W/m2
21:15 -9.8 °C -12.4 °C 34601.5 hPa ENE 2.6 km/h 10.3 km/h 74 % 0 mm 12 W/m2
21:20 -9.9 °C -12.4 °C 34601.5 hPa NE 2.6 km/h 10.3 km/h 75 % 0 mm 7 W/m2
21:25 -10.1 °C -12.4 °C 34601.5 hPa NE 12.9 km/h 12.9 km/h 76 % 0 mm 0 W/m2
21:30 -10.2 °C -12.3 °C 34601.5 hPa ENE 5.1 km/h 12.9 km/h 77 % 0 mm 0 W/m2
21:35 -10.3 °C -12.4 °C 34601.5 hPa ENE 2.6 km/h 12.9 km/h 78 % 0 mm 0 W/m2
21:40 -10.4 °C -12.4 °C 34601.5 hPa North 2.6 km/h 15.6 km/h 78 % 0 mm 0 W/m2
21:45 -10.4 °C -12.5 °C 34601.5 hPa Calm   15.6 km/h 78 % 0 mm 0 W/m2
21:50 -10.4 °C -12.6 °C 34601.5 hPa NE 2.6 km/h 15.6 km/h 77 % 0 mm 0 W/m2
21:55 -10.4 °C -12.7 °C 34601.5 hPa Calm   15.6 km/h 76 % 0 mm 0 W/m2
22:00 -10.5 °C -12.7 °C 34601.5 hPa East 12.9 km/h 23.3 km/h 77 % 0 mm 0 W/m2
22:05 -10.4 °C -12.8 °C 34611.7 hPa NE 10.3 km/h 31.1 km/h 76 % 0 mm 0 W/m2
22:10 -10.4 °C -12.8 °C 34611.7 hPa NNE 10.3 km/h 33.6 km/h 75 % 0 mm 0 W/m2
22:15 -10.4 °C -12.8 °C 34611.7 hPa ENE 12.9 km/h 33.6 km/h 75 % 0 mm 0 W/m2
22:20 -10.4 °C -12.9 °C 34611.7 hPa East 12.9 km/h 31.1 km/h 75 % 0 mm 0 W/m2
22:25 -10.6 °C -12.8 °C 34611.7 hPa East 20.8 km/h 33.6 km/h 76 % 0 mm 0 W/m2
22:30 -10.6 °C -12.9 °C 34611.7 hPa East 36.2 km/h 38.8 km/h 76 % 0 mm 0 W/m2
22:35 -10.7 °C -12.9 °C 34625.2 hPa East 5.1 km/h 38.8 km/h 77 % 0 mm 0 W/m2
22:40 -10.8 °C -12.9 °C 34611.7 hPa ENE 20.8 km/h 41.4 km/h 78 % 0 mm 0 W/m2
22:45 -10.9 °C -12.9 °C 34625.2 hPa East 5.1 km/h 41.4 km/h 79 % 0 mm 0 W/m2
22:50 -11.1 °C -12.9 °C 34625.2 hPa East 23.3 km/h 28.5 km/h 80 % 0 mm 0 W/m2
22:55 -11.2 °C -13.1 °C 34625.2 hPa NE 18.2 km/h 41.4 km/h 80 % 0 mm 0 W/m2
23:00 -11.3 °C -13.2 °C 34625.2 hPa NE 5.1 km/h 49.2 km/h 80 % 0 mm 0 W/m2
23:05 -11.3 °C -13.1 °C 34635.4 hPa ENE 10.3 km/h 49.2 km/h 81 % 0 mm 0 W/m2
23:10 -11.4 °C -13.3 °C 34635.4 hPa NE 18.2 km/h 46.7 km/h 80 % 0 mm 0 W/m2
23:15 -11.6 °C -13.4 °C 34635.4 hPa East 18.2 km/h 46.7 km/h 80 % 0 mm 0 W/m2
23:20 -11.7 °C -13.4 °C 34625.2 hPa East 20.8 km/h 36.2 km/h 81 % 0 mm 0 W/m2
23:25 -11.7 °C -13.4 °C 34635.4 hPa East 18.2 km/h 38.8 km/h 81 % 0 mm 0 W/m2
23:30 -11.8 °C -13.6 °C 34625.2 hPa ENE 5.1 km/h 46.7 km/h 81 % 0 mm 0 W/m2
23:35 -11.9 °C -13.7 °C 34625.2 hPa ENE 23.3 km/h 46.7 km/h 81 % 0 mm 0 W/m2
23:40 -12.1 °C -13.7 °C 34625.2 hPa East 15.6 km/h 31.1 km/h 82 % 0 mm 0 W/m2
23:45 -12.1 °C -13.8 °C 34635.4 hPa NE 10.3 km/h 33.6 km/h 81 % 0 mm 0 W/m2
23:50 -12.1 °C -13.7 °C 34635.4 hPa East 28.5 km/h 33.6 km/h 82 % 0 mm 0 W/m2
23:55 -12.1 °C -13.8 °C 34635.4 hPa East 15.6 km/h 33.6 km/h 82 % 0 mm 0 W/m2
Avec l'autorisation de Weather Underground - 1.75 mb